Terminal Aerodrome Forecast
Issued by NWS Tuscon, AZ

Home | Current Version | Previous Version | Text Only | Print | Product List | Glossary On
Versions: 1 2 3 4 5 6 7 8 9 10 11 12 13 14 15 16 17 18 19
000
FTUS45 KTWC 051739
TAFTUS
TAF
KTUS 051739Z 0518/0618 18008KT P6SM VCSH FEW060 BKN120
     FM052200 26006KT P6SM VCSH SCT070 BKN120
     FM060300 17008KT P6SM SCT100 BKN150=

USA.gov is the U.S. government's official web portal to all federal, state and local government web resources and services.